Terminal Aerodrome Forecast
Issued by NWS Greer, SC

Home | Current Version | Previous Version | Text Only | Print | Product List | Glossary On
Versions: 1 2 3 4 5 6 7 8 9 10 11 12 13 14 15 16 17 18 19 20 21 22 23 24 25 26 27 28 29 30 31 32 33 34 35 36 37 38 39 40 41 42
000
FTUS42 KGSP 021700
TAFAVL
TAF
KAVL 021737Z 0218/0318 VRB03KT P6SM SCT060
     FM030500 00000KT 4SM BR FEW003 SCT040
     FM030800 00000KT 1SM BR OVC002
     FM031400 00000KT P6SM OVC020
     FM031500 17004KT P6SM -SHRA OVC050=

USA.gov is the U.S. government's official web portal to all federal, state and local government web resources and services.